Blue Bell, PA

8:17 AM EDT on September 28, 2016 (GMT -0400)
Philadelphia Wings Airport

Weather History for KLOM - September, 2013

Change the Weather History Date:

Sunday, September 15, 2013

  Actual Average (KPNE) Record (KPNE)
Temperature  
Mean Temperature 56 °F -  
Max Temperature 71 °F 75 °F 87 °F (1998)
Min Temperature 41 °F 57 °F 48 °F (2001)
Degree Days  
Heating Degree Days 9    
Growing Degree Days 6 (Base 50)    
Moisture  
Dew Point 48 °F    
Average Humidity 76    
Maximum Humidity 100    
Minimum Humidity 43    
Precipitation  
Precipitation 0.00 in - - ()
Sea Level Pressure  
Sea Level Pressure 30.16 in    
Wind  
Wind Speed 1 mph (WSW)    
Max Wind Speed 8 mph    
Max Gust Speed -    
Visibility 9 miles    
Events      
Averages and records for this station are not official NWS values.
T = Trace of Precipitation, MM = Missing Value Source: NWS Daily Summary

Daily Weather History Graph

Daily Weather History Graph

Search for Another Location

Airport or City:

Trip Planner

Search our weather history database for the weather conditions in past years. The results will help you decide how hot, cold, wet, or windy it might be!

Date:

Astronomy

Sep. 15, 2013 Rise Set
Actual Time 6:42 AM EDT 7:09 PM EDT
Civil Twilight 6:14 AM EDT 7:36 PM EDT
Nautical Twilight 5:42 AM EDT 8:08 PM EDT
Astronomical Twilight 5:09 AM EDT 8:41 PM EDT
Moon 4:35 PM EDT (9/15) 2:17 AM EDT (9/15)
Length of Visible Light 13h 21m
Length of Day
12h 27m
Waxing Gibbous, 82% of the Moon is Illuminated
Sep 15
Waxing Gibbous
Sep 19
Full
Sep 26
Last Quarter
Oct 4
New
Oct 11
First Quarter

Hourly Weather History & Observations

Time (EDT) Temp. Dew Point Humidity Pressure Visibility Wind Dir Wind Speed Gust Speed Precip Events Conditions
12:15 AM 44.6 °F 42.8 °F 93% 30.16 in 10.0 mi Calm Calm - N/A   Clear
12:35 AM 44.6 °F 42.8 °F 93% 30.16 in 10.0 mi Calm Calm - N/A   Clear
12:55 AM 44.6 °F 42.8 °F 93% 30.17 in 10.0 mi Calm Calm - N/A   Clear
1:15 AM 44.6 °F 42.8 °F 93% 30.17 in 10.0 mi Calm Calm - N/A   Clear
1:35 AM 44.6 °F 42.8 °F 93% 30.17 in 10.0 mi Calm Calm - N/A   Clear
1:55 AM 42.8 °F 42.8 °F 100% 30.17 in 7.0 mi Calm Calm - N/A   Clear
2:15 AM 42.8 °F 42.8 °F 100% 30.17 in 5.0 mi Calm Calm - N/A   Clear
2:35 AM 42.8 °F 42.8 °F 100% 30.17 in 10.0 mi Calm Calm - N/A   Clear
2:55 AM 42.8 °F 42.8 °F 100% 30.17 in 7.0 mi Calm Calm - N/A   Clear
3:15 AM 42.8 °F 41.0 °F 93% 30.18 in 5.0 mi Calm Calm - N/A   Clear
3:35 AM 42.8 °F 41.0 °F 93% 30.18 in 4.0 mi Calm Calm - N/A   Clear
3:55 AM 42.8 °F 42.8 °F 100% 30.18 in 7.0 mi Calm Calm - N/A   Clear
4:15 AM 41.0 °F 41.0 °F 100% 30.18 in 3.0 mi Calm Calm - N/A   Clear
4:35 AM 41.0 °F 41.0 °F 100% 30.19 in 5.0 mi Calm Calm - N/A   Clear
4:55 AM 42.8 °F 41.0 °F 93% 30.19 in 7.0 mi Calm Calm - N/A   Clear
5:15 AM 42.8 °F 42.8 °F 100% 30.19 in 7.0 mi Calm Calm - N/A   Clear
5:35 AM 41.0 °F 41.0 °F 100% 30.19 in 7.0 mi Calm Calm - N/A   Clear
5:55 AM 41.0 °F 41.0 °F 100% 30.19 in 4.0 mi Calm Calm - N/A   Clear
6:15 AM 42.8 °F 41.0 °F 93% 30.19 in 2.5 mi Calm Calm - N/A   Clear
6:35 AM 41.0 °F 41.0 °F 100% 30.20 in 5.0 mi Calm Calm - N/A   Clear
6:55 AM 41.0 °F 41.0 °F 100% 30.21 in 4.0 mi Calm Calm - N/A   Clear
7:15 AM 42.8 °F 42.8 °F 100% 30.21 in 5.0 mi Calm Calm - N/A   Clear
7:35 AM 44.6 °F 44.6 °F 100% 30.22 in 10.0 mi Calm Calm - N/A   Clear
7:55 AM 46.4 °F 46.4 °F 100% 30.22 in 10.0 mi Calm Calm - N/A   Clear
8:15 AM 50.0 °F 46.4 °F 87% 30.22 in 10.0 mi Calm Calm - N/A   Clear
8:35 AM 51.8 °F 46.4 °F 82% 30.23 in 10.0 mi Calm Calm - N/A   Clear
8:55 AM 53.6 °F 46.4 °F 77% 30.23 in 10.0 mi West 3.5 mph - N/A   Clear
9:15 AM 55.4 °F 46.4 °F 72% 30.23 in 10.0 mi Calm Calm - N/A   Clear
9:35 AM 59.0 °F 46.4 °F 63% 30.24 in 10.0 mi Calm Calm - N/A   Clear
9:55 AM 59.0 °F 44.6 °F 59% 30.23 in 10.0 mi Calm Calm - N/A   Clear
10:15 AM 60.8 °F 44.6 °F 55% 30.24 in 10.0 mi WSW 5.8 mph - N/A   Clear
10:35 AM 62.6 °F 46.4 °F 55% 30.23 in 10.0 mi West 3.5 mph - N/A   Clear
10:55 AM 62.6 °F 46.4 °F 55% 30.23 in 10.0 mi West 4.6 mph - N/A   Clear
11:15 AM 64.4 °F 48.2 °F 56% 30.23 in 10.0 mi West 6.9 mph - N/A   Clear
11:35 AM 64.4 °F 50.0 °F 59% 30.22 in 10.0 mi West 4.6 mph - N/A   Clear
11:55 AM 66.2 °F 50.0 °F 56% 30.22 in 10.0 mi West 4.6 mph - N/A   Clear
12:15 PM 68.0 °F 50.0 °F 52% 30.21 in 10.0 mi West 5.8 mph - N/A   Clear
12:35 PM 68.0 °F 50.0 °F 52% 30.21 in 10.0 mi WSW 3.5 mph - N/A   Clear
12:55 PM 69.8 °F 50.0 °F 49% 30.20 in 10.0 mi SW 4.6 mph - N/A   Clear
1:15 PM 69.8 °F 50.0 °F 49% 30.19 in 10.0 mi WSW 3.5 mph - N/A   Clear
1:35 PM 69.8 °F 50.0 °F 49% 30.18 in 10.0 mi WSW 4.6 mph - N/A   Clear
1:55 PM 69.8 °F 48.2 °F 46% 30.18 in 10.0 mi WSW 3.5 mph - N/A   Clear
2:15 PM 69.8 °F 50.0 °F 49% 30.17 in 10.0 mi West 4.6 mph - N/A   Clear
2:35 PM 69.8 °F 48.2 °F 46% 30.16 in 10.0 mi SSW 8.1 mph - N/A   Clear
2:55 PM 69.8 °F 48.2 °F 46% 30.15 in 10.0 mi West 3.5 mph - N/A   Clear
3:15 PM 71.6 °F 48.2 °F 43% 30.14 in 10.0 mi SW 4.6 mph - N/A   Clear
3:35 PM 71.6 °F 50.0 °F 46% 30.13 in 10.0 mi SW 6.9 mph - N/A   Clear
3:55 PM 69.8 °F 46.4 °F 43% 30.13 in 10.0 mi SW 6.9 mph - N/A   Clear
4:15 PM 69.8 °F 48.2 °F 46% 30.12 in 10.0 mi SW 6.9 mph - N/A   Clear
4:35 PM 69.8 °F 50.0 °F 49% 30.12 in 10.0 mi SW 4.6 mph - N/A   Clear
4:55 PM 71.6 °F 50.0 °F 46% 30.11 in 10.0 mi SW 5.8 mph - N/A   Clear
5:15 PM 69.8 °F 50.0 °F 49% 30.11 in 10.0 mi West 3.5 mph - N/A   Clear
5:35 PM 69.8 °F 50.0 °F 49% 30.11 in 10.0 mi South 6.9 mph - N/A   Clear
5:55 PM 68.0 °F 48.2 °F 49% 30.10 in 10.0 mi SSW 3.5 mph - N/A   Clear
6:15 PM 68.0 °F 50.0 °F 52% 30.10 in 10.0 mi WSW 3.5 mph - N/A   Clear
6:35 PM 66.2 °F 50.0 °F 56% 30.10 in 10.0 mi SW 4.6 mph - N/A   Clear
6:55 PM 62.6 °F 53.6 °F 72% 30.10 in 10.0 mi Calm Calm - N/A   Clear
7:15 PM 59.0 °F 55.4 °F 88% 30.10 in 10.0 mi Calm Calm - N/A   Clear
7:35 PM 59.0 °F 53.6 °F 82% 30.10 in 10.0 mi Calm Calm - N/A   Clear
7:55 PM 55.4 °F 53.6 °F 94% 30.10 in 10.0 mi Calm Calm - N/A   Clear
8:15 PM 55.4 °F 53.6 °F 94% 30.11 in 10.0 mi Calm Calm - N/A   Clear
8:35 PM 59.0 °F 53.6 °F 82% 30.11 in 10.0 mi SSW 3.5 mph - N/A   Clear
8:55 PM 62.6 °F 53.6 °F 72% 30.11 in 10.0 mi SSW 4.6 mph - N/A   Clear
9:15 PM 60.8 °F 53.6 °F 77% 30.11 in 10.0 mi Calm Calm - N/A   Clear
9:35 PM 60.8 °F 53.6 °F 77% 30.11 in 10.0 mi Calm Calm - N/A   Clear
9:55 PM 59.0 °F 53.6 °F 82% 30.11 in 10.0 mi Calm Calm - N/A   Clear
10:15 PM 57.2 °F 53.6 °F 88% 30.11 in 10.0 mi Calm Calm - N/A   Clear
10:35 PM 55.4 °F 53.6 °F 94% 30.11 in 10.0 mi Calm Calm - N/A   Clear
10:55 PM 55.4 °F 53.6 °F 94% 30.11 in 10.0 mi Calm Calm - N/A   Clear
11:15 PM 53.6 °F 51.8 °F 94% 30.11 in 10.0 mi Calm Calm - N/A   Clear
11:35 PM 55.4 °F 53.6 °F 94% 30.11 in 10.0 mi Calm Calm - N/A   Clear
11:55 PM 55.4 °F 53.6 °F 94% 30.10 in 10.0 mi Calm Calm - N/A   Clear